Main page
METAR-TAF:

METAR-TAF

Airports :

Nador International Airport

Nador, Morocco

latitude: 34-59-20N, longitude: 003-01-42W, elevation: 175 m

Current weather observation

The report was made 9 hours and 2 minutes ago, at 05:00 UTC
Wind 2 kt from variable directions
Temperature 21°C
Humidity 83%
Pressure 1015 hPa
Visibility 10 km or more
Few clouds at a height of 1300 ft

METAR: GMMW 210500Z VRB02KT 9999 FEW013 21/18 Q1015 NOSIG

Time: 15:02 (14:02 UTC)

Forecast

The report was made 9 hours and 2 minutes ago, at 05:00 UTC
Forecast valid from 21 at 06 UTC to 22 at 12 UTC
Wind 2 kt from variable directions
Visibility: 8000 m
Few clouds at a height of 1300 ft
Becoming
from 21 at 10 UTC to 21 at 12 UTC
Wind 11 kt from the North/Northeast
Few clouds at a height of 2000 ft
Becoming
from 21 at 21 UTC to 21 at 23 UTC
Wind 2 kt from variable directions
Broken clouds at a height of 1300 ft

TAF: GMMW 210500Z 2106/2212 VRB02KT 8000 FEW013 BECMG 2110/2112 03011KT FEW020 BECMG 2121/2123 VRB02KT BKN013

Weather observations and forecasts of more than 4000 airports (METAR and TAF reports).

The available stations are represented by yellow and red dots on the map.

Hover mouse over dot to see the name of the station.

Then click to see weather observations and forecasts.

To change the map : click on the green buttons with a black cross to zoom in, on the green button with a dash to zoom out, or on the green arrows for adjacent maps.


METAR-TAF: